createdAt,value
2022-09-03T00:00:54.655Z,89.53
2022-09-03T00:01:54.629Z,87.62
2022-09-03T00:02:54.633Z,88.00
2022-09-03T00:03:54.422Z,88.57
2022-09-03T00:04:54.349Z,87.33
2022-09-03T00:05:54.268Z,89.34
2022-09-03T00:06:54.188Z,88.76
2022-09-03T00:07:54.114Z,87.52
2022-09-03T00:08:54.035Z,87.81
2022-09-03T00:09:53.960Z,88.09
2022-09-03T00:10:53.881Z,88.86
2022-09-03T00:11:53.797Z,88.86
2022-09-03T00:12:53.722Z,89.05
2022-09-03T00:13:53.646Z,89.43
2022-09-03T00:14:53.565Z,89.81
2022-09-03T00:15:53.570Z,89.53
2022-09-03T00:16:53.416Z,90.67
2022-09-03T00:17:53.338Z,90.58
2022-09-03T00:18:53.256Z,90.58
2022-09-03T00:19:53.174Z,90.58
2022-09-03T00:20:53.103Z,90.48
2022-09-03T00:21:53.023Z,89.53
2022-09-03T00:22:52.947Z,89.34
2022-09-03T00:23:52.869Z,89.72
2022-09-03T00:24:52.794Z,88.76
2022-09-03T00:25:52.714Z,88.67
2022-09-03T00:26:52.634Z,88.19
2022-09-03T00:27:52.559Z,88.48
2022-09-03T00:28:52.478Z,87.23
2022-09-03T00:29:52.406Z,88.67
2022-09-03T00:30:52.348Z,89.53
2022-09-03T00:31:52.243Z,88.48
2022-09-03T00:32:52.168Z,89.91
2022-09-03T00:33:52.090Z,88.38
2022-09-03T00:34:52.011Z,90.44
2022-09-03T00:35:51.930Z,90.48
2022-09-03T00:36:51.857Z,91.63
2022-09-03T00:37:51.776Z,91.44
2022-09-03T00:38:51.696Z,91.53
2022-09-03T00:39:51.660Z,91.92
2022-09-03T00:40:51.543Z,92.11
2022-09-03T00:41:51.459Z,92.21
2022-09-03T00:42:51.384Z,92.16
2022-09-03T00:43:51.313Z,92.35
2022-09-03T00:44:51.230Z,92.16
2022-09-03T00:45:51.166Z,91.88
2022-09-03T00:46:51.076Z,91.68
2022-09-03T00:47:50.992Z,90.63
2022-09-03T00:48:50.936Z,89.87
2022-09-03T00:49:50.843Z,90.25
2022-09-03T00:50:50.768Z,89.58
2022-09-03T00:51:50.686Z,89.20
2022-09-03T00:52:50.607Z,88.53
2022-09-03T00:53:50.527Z,89.29
2022-09-03T00:54:50.458Z,88.34
2022-09-03T00:55:50.370Z,88.34
2022-09-03T00:56:50.306Z,88.62
2022-09-03T00:57:50.217Z,87.95
2022-09-03T00:58:50.136Z,87.95
2022-09-03T00:59:50.062Z,88.24
2022-09-03T01:00:49.984Z,89.48
2022-09-03T01:01:50.004Z,89.77
2022-09-03T01:02:49.935Z,89.77
2022-09-03T01:03:49.746Z,90.06
2022-09-03T01:04:49.673Z,90.06
2022-09-03T01:05:49.593Z,89.67
2022-09-03T01:06:49.510Z,90.25
2022-09-03T01:07:49.441Z,90.06
2022-09-03T01:08:49.473Z,88.91
2022-09-03T01:09:49.281Z,89.48
2022-09-03T01:10:49.205Z,89.58
2022-09-03T01:11:49.125Z,89.20
2022-09-03T01:12:49.042Z,89.87
2022-09-03T01:13:48.969Z,88.24
2022-09-03T01:14:48.892Z,88.72
2022-09-03T01:15:48.840Z,89.58
2022-09-03T01:16:48.733Z,90.44
2022-09-03T01:17:48.659Z,90.34
2022-09-03T01:18:48.573Z,91.39
2022-09-03T01:19:48.493Z,90.92
2022-09-03T01:20:48.420Z,90.92
2022-09-03T01:21:48.343Z,91.20
2022-09-03T01:22:48.265Z,90.63
2022-09-03T01:23:48.191Z,90.53
2022-09-03T01:24:48.109Z,90.53
2022-09-03T01:25:48.029Z,90.49
2022-09-03T01:26:47.951Z,90.49
2022-09-03T01:27:47.875Z,90.49
2022-09-03T01:28:47.796Z,89.58
2022-09-03T01:29:47.713Z,89.92
2022-09-03T01:30:47.653Z,89.63
2022-09-03T01:31:47.569Z,90.59
2022-09-03T01:32:47.482Z,88.68
2022-09-03T01:33:47.400Z,88.68
2022-09-03T01:34:47.327Z,89.15
2022-09-03T01:35:47.249Z,88.10
2022-09-03T01:36:47.168Z,88.01
2022-09-03T01:37:47.095Z,87.34
2022-09-03T01:38:47.022Z,86.57
2022-09-03T01:39:47.059Z,86.00
2022-09-03T01:40:46.857Z,86.38
2022-09-03T01:41:46.779Z,85.71
2022-09-03T01:42:46.696Z,86.47
2022-09-03T01:43:46.617Z,86.67
2022-09-03T01:44:46.570Z,83.80
2022-09-03T01:45:51.751Z,85.90
2022-09-03T01:46:46.423Z,84.66
2022-09-03T01:47:46.306Z,84.38
2022-09-03T01:48:46.226Z,84.56
2022-09-03T01:49:46.156Z,84.66
2022-09-03T01:50:46.073Z,85.42
2022-09-03T01:51:45.994Z,85.14
2022-09-03T01:52:45.915Z,86.67
2022-09-03T01:53:45.832Z,86.29
2022-09-03T01:54:45.755Z,84.56
2022-09-03T01:55:45.681Z,84.66
2022-09-03T01:56:45.605Z,84.76
2022-09-03T01:57:45.521Z,84.28
2022-09-03T01:58:45.448Z,84.85
2022-09-03T01:59:45.366Z,84.28
2022-09-03T02:00:45.286Z,83.04
2022-09-03T02:01:45.271Z,83.04
2022-09-03T02:02:45.149Z,83.33
2022-09-03T02:03:45.058Z,82.84
2022-09-03T02:04:44.975Z,83.33
2022-09-03T02:05:44.893Z,83.13
2022-09-03T02:06:44.817Z,82.94
2022-09-03T02:07:44.741Z,83.04
2022-09-03T02:08:44.660Z,81.89
2022-09-03T02:09:44.579Z,82.94
2022-09-03T02:10:44.506Z,83.61
2022-09-03T02:11:44.434Z,82.75
2022-09-03T02:12:44.350Z,82.65
2022-09-03T02:13:44.266Z,83.33
2022-09-03T02:14:44.191Z,82.84
2022-09-03T02:15:44.177Z,83.42
2022-09-03T02:16:44.033Z,81.99
2022-09-03T02:17:43.954Z,82.08
2022-09-03T02:18:43.884Z,82.28
2022-09-03T02:19:43.793Z,82.56
2022-09-03T02:20:43.720Z,83.90
2022-09-03T02:21:43.640Z,83.99
2022-09-03T02:22:43.564Z,83.80
2022-09-03T02:23:43.487Z,83.04
2022-09-03T02:24:43.405Z,83.13
2022-09-03T02:25:43.327Z,81.09
2022-09-03T02:26:43.249Z,80.22
2022-09-03T02:27:43.169Z,79.08
2022-09-03T02:28:43.092Z,77.17
2022-09-03T02:29:43.015Z,77.84
2022-09-03T02:30:42.988Z,77.84
2022-09-03T02:31:42.857Z,77.26
2022-09-03T02:32:42.779Z,77.08
2022-09-03T02:33:42.699Z,76.50
2022-09-03T02:34:42.619Z,77.17
2022-09-03T02:35:42.540Z,77.45
2022-09-03T02:36:42.463Z,75.93
2022-09-03T02:37:42.383Z,75.93
2022-09-03T02:38:42.306Z,76.31
2022-09-03T02:39:42.262Z,76.50
2022-09-03T02:40:42.146Z,76.12
2022-09-03T02:41:42.083Z,77.26
2022-09-03T02:42:41.990Z,76.50
2022-09-03T02:43:41.915Z,77.45
2022-09-03T02:44:41.835Z,77.17
2022-09-03T02:45:41.830Z,78.60
2022-09-03T02:46:41.671Z,78.70
2022-09-03T02:47:41.595Z,79.17
2022-09-03T02:48:41.517Z,79.46
2022-09-03T02:49:41.440Z,79.85
2022-09-03T02:50:41.361Z,80.32
2022-09-03T02:51:41.285Z,80.32
2022-09-03T02:52:41.203Z,81.09
2022-09-03T02:53:41.132Z,80.61
2022-09-03T02:54:41.042Z,80.51
2022-09-03T02:55:40.970Z,80.90
2022-09-03T02:56:40.892Z,79.88
2022-09-03T02:57:40.806Z,79.65
2022-09-03T02:58:40.727Z,80.65
2022-09-03T02:59:40.651Z,80.90
2022-09-03T03:00:40.576Z,80.93
2022-09-03T03:01:41.976Z,82.04
2022-09-03T03:02:40.450Z,81.47
2022-09-03T03:03:40.332Z,81.60
2022-09-03T03:04:40.254Z,82.71
2022-09-03T03:05:40.177Z,81.89
2022-09-03T03:06:40.097Z,83.28
2022-09-03T03:07:40.025Z,82.94
2022-09-03T03:08:39.943Z,82.90
2022-09-03T03:09:39.865Z,82.61
2022-09-03T03:10:39.788Z,82.04
2022-09-03T03:11:39.707Z,82.23
2022-09-03T03:12:39.636Z,82.71
2022-09-03T03:13:39.555Z,81.66
2022-09-03T03:14:39.468Z,80.99
2022-09-03T03:15:39.394Z,81.37
2022-09-03T03:16:39.353Z,81.95
2022-09-03T03:17:39.233Z,81.47
2022-09-03T03:18:39.158Z,80.99
2022-09-03T03:19:39.077Z,81.56
2022-09-03T03:20:38.998Z,81.18
2022-09-03T03:21:38.917Z,80.80
2022-09-03T03:22:38.841Z,81.27
2022-09-03T03:23:38.766Z,80.70
2022-09-03T03:24:38.684Z,81.03
2022-09-03T03:25:38.613Z,81.76
2022-09-03T03:26:38.526Z,82.18
2022-09-03T03:27:38.451Z,82.32
2022-09-03T03:28:38.373Z,83.09
2022-09-03T03:29:38.290Z,82.90
2022-09-03T03:30:38.236Z,83.23
2022-09-03T03:31:38.132Z,83.33
2022-09-03T03:32:38.054Z,83.70
2022-09-03T03:33:37.980Z,83.80
2022-09-03T03:34:37.893Z,84.09
2022-09-03T03:35:37.814Z,84.66
2022-09-03T03:36:37.744Z,84.95
2022-09-03T03:37:37.664Z,85.33
2022-09-03T03:38:37.580Z,85.71
2022-09-03T03:39:37.602Z,86.47
2022-09-03T03:40:37.426Z,86.47
2022-09-03T03:41:37.344Z,86.19
2022-09-03T03:42:37.264Z,85.42
2022-09-03T03:43:37.194Z,85.71
2022-09-03T03:44:37.106Z,86.10
2022-09-03T03:45:37.055Z,85.14
2022-09-03T03:46:36.948Z,86.86
2022-09-03T03:47:36.871Z,87.34
2022-09-03T03:48:36.796Z,86.96
2022-09-03T03:49:36.716Z,86.67
2022-09-03T03:50:36.642Z,86.57
2022-09-03T03:51:36.579Z,86.57
2022-09-03T03:52:36.478Z,86.38
2022-09-03T03:53:36.404Z,86.29
2022-09-03T03:54:36.328Z,86.19
2022-09-03T03:55:36.245Z,86.29
2022-09-03T03:56:36.166Z,87.15
2022-09-03T03:57:36.084Z,86.76
2022-09-03T03:58:36.004Z,86.76
2022-09-03T03:59:35.927Z,86.86
2022-09-03T04:00:35.855Z,86.67
2022-09-03T04:01:35.837Z,86.47
2022-09-03T04:02:39.074Z,85.62
2022-09-03T04:03:35.613Z,86.67
2022-09-03T04:04:35.532Z,86.57
2022-09-03T04:05:35.456Z,86.29
2022-09-03T04:06:35.378Z,86.00
2022-09-03T04:07:35.301Z,85.90
2022-09-03T04:08:35.220Z,85.81
2022-09-03T04:09:35.143Z,85.90
2022-09-03T04:10:35.068Z,86.67
2022-09-03T04:11:34.996Z,85.42
2022-09-03T04:12:34.912Z,85.52
2022-09-03T04:13:34.833Z,85.52
2022-09-03T04:14:34.755Z,85.42
2022-09-03T04:15:34.686Z,85.90
2022-09-03T04:16:34.647Z,85.33
2022-09-03T04:17:34.521Z,85.24
2022-09-03T04:18:34.435Z,84.56
2022-09-03T04:19:34.359Z,84.38
2022-09-03T04:20:34.283Z,83.13
2022-09-03T04:21:34.198Z,83.13
2022-09-03T04:22:34.124Z,82.75
2022-09-03T04:23:34.045Z,81.51
2022-09-03T04:24:33.964Z,81.70
2022-09-03T04:25:33.884Z,81.66
2022-09-03T04:26:33.809Z,82.42
2022-09-03T04:27:33.729Z,82.46
2022-09-03T04:28:33.651Z,82.84
2022-09-03T04:29:33.597Z,82.94
2022-09-03T04:30:33.599Z,81.95
2022-09-03T04:31:33.421Z,82.14
2022-09-03T04:32:33.338Z,82.23
2022-09-03T04:33:33.255Z,81.66
2022-09-03T04:34:33.180Z,81.60
2022-09-03T04:35:33.097Z,83.00
2022-09-03T04:36:33.016Z,83.09
2022-09-03T04:37:32.944Z,82.18
2022-09-03T04:38:32.860Z,83.18
2022-09-03T04:39:32.823Z,82.04
2022-09-03T04:40:32.700Z,81.95
2022-09-03T04:41:32.625Z,81.27
2022-09-03T04:42:32.547Z,80.80
2022-09-03T04:43:32.476Z,80.90
2022-09-03T04:44:32.387Z,81.47
2022-09-03T04:45:32.326Z,81.51
2022-09-03T04:46:32.235Z,81.37
2022-09-03T04:47:32.152Z,81.70
2022-09-03T04:48:32.079Z,82.04
2022-09-03T04:49:32.002Z,81.95
2022-09-03T04:50:31.917Z,81.32
2022-09-03T04:51:31.917Z,81.22
2022-09-03T04:52:31.763Z,82.14
2022-09-03T04:53:31.684Z,81.95
2022-09-03T04:54:31.606Z,82.08
2022-09-03T04:55:31.522Z,81.89
2022-09-03T04:56:31.448Z,81.99
2022-09-03T04:57:31.367Z,83.04
2022-09-03T04:58:31.291Z,82.75
2022-09-03T04:59:31.208Z,83.51
2022-09-03T05:00:31.132Z,83.70
2022-09-03T05:01:31.118Z,84.95
2022-09-03T05:02:31.037Z,84.28
2022-09-03T05:03:30.896Z,83.13
2022-09-03T05:04:30.815Z,83.13
2022-09-03T05:05:30.736Z,84.09
2022-09-03T05:06:30.656Z,85.24
2022-09-03T05:07:30.583Z,84.85
2022-09-03T05:08:30.502Z,85.33
2022-09-03T05:09:30.423Z,85.33
2022-09-03T05:10:30.345Z,85.71
2022-09-03T05:11:30.265Z,85.52
2022-09-03T05:12:30.189Z,85.42
2022-09-03T05:13:30.105Z,85.52
2022-09-03T05:14:30.030Z,84.19
2022-09-03T05:15:29.951Z,84.09
2022-09-03T05:16:29.941Z,85.14
2022-09-03T05:17:29.793Z,85.24
2022-09-03T05:18:29.715Z,85.90
2022-09-03T05:19:29.642Z,85.52
2022-09-03T05:20:29.556Z,86.57
2022-09-03T05:21:29.481Z,86.29
2022-09-03T05:22:29.402Z,86.86
2022-09-03T05:23:29.321Z,86.57
2022-09-03T05:24:29.246Z,86.86
2022-09-03T05:25:29.161Z,86.67
2022-09-03T05:26:29.085Z,85.47
2022-09-03T05:27:29.006Z,85.14
2022-09-03T05:28:28.934Z,86.33
2022-09-03T05:29:28.851Z,88.05
2022-09-03T05:30:28.778Z,90.34
2022-09-03T05:31:28.755Z,89.87
2022-09-03T05:32:28.620Z,90.63
2022-09-03T05:33:28.535Z,89.77
2022-09-03T05:34:28.459Z,90.25
2022-09-03T05:35:30.256Z,90.16
2022-09-03T05:36:28.301Z,91.20
2022-09-03T05:37:28.231Z,91.59
2022-09-03T05:38:28.148Z,91.11
2022-09-03T05:39:28.108Z,91.30
2022-09-03T05:40:27.988Z,89.67
2022-09-03T05:41:27.906Z,89.29
2022-09-03T05:42:27.833Z,89.67
2022-09-03T05:43:27.749Z,88.62
2022-09-03T05:44:27.677Z,87.76
2022-09-03T05:45:27.600Z,88.62
2022-09-03T05:46:27.512Z,87.29
2022-09-03T05:47:27.435Z,87.19
2022-09-03T05:48:27.359Z,88.34
2022-09-03T05:49:27.279Z,91.02
2022-09-03T05:50:27.199Z,91.39
2022-09-03T05:51:27.121Z,93.31
2022-09-03T05:52:27.045Z,92.35
2022-09-03T05:53:26.967Z,91.49
2022-09-03T05:54:26.887Z,91.59
2022-09-03T05:55:26.811Z,93.21
2022-09-03T05:56:26.726Z,92.07
2022-09-03T05:57:26.652Z,92.83
2022-09-03T05:58:26.573Z,93.79
2022-09-03T05:59:26.495Z,93.60
2022-09-03T06:00:26.419Z,93.88
2022-09-03T06:01:26.342Z,92.54
2022-09-03T06:02:26.333Z,93.31
2022-09-03T06:03:26.472Z,93.45
2022-09-03T06:04:26.104Z,92.88
2022-09-03T06:05:26.025Z,92.40
2022-09-03T06:06:25.965Z,90.82
2022-09-03T06:07:25.872Z,91.68
2022-09-03T06:08:25.790Z,92.11
2022-09-03T06:09:25.722Z,93.45
2022-09-03T06:10:27.026Z,94.12
2022-09-03T06:11:25.555Z,93.40
2022-09-03T06:12:25.483Z,93.45
2022-09-03T06:13:25.464Z,93.60
2022-09-03T06:14:25.329Z,93.88
2022-09-03T06:15:25.241Z,94.89
2022-09-03T06:16:31.467Z,95.17
2022-09-03T06:17:25.085Z,93.74
2022-09-03T06:18:25.185Z,94.79
2022-09-03T06:19:24.932Z,95.17
2022-09-03T06:20:24.855Z,93.93
2022-09-03T06:21:24.777Z,95.07
2022-09-03T06:22:24.704Z,93.55
2022-09-03T06:23:24.615Z,94.65
2022-09-03T06:24:26.547Z,94.89
2022-09-03T06:25:24.462Z,94.60
2022-09-03T06:26:24.386Z,94.60
2022-09-03T06:27:24.306Z,94.31
2022-09-03T06:28:24.658Z,93.26
2022-09-03T06:29:24.147Z,93.45
2022-09-03T06:30:24.071Z,94.21
2022-09-03T06:31:24.161Z,93.35
2022-09-03T06:32:23.914Z,93.55
2022-09-03T06:33:23.904Z,94.50
2022-09-03T06:34:23.752Z,94.60
2022-09-03T06:35:23.682Z,92.02
2022-09-03T06:36:23.603Z,93.16
2022-09-03T06:37:23.526Z,95.07
2022-09-03T06:38:23.490Z,94.31
2022-09-03T06:39:23.426Z,94.02
2022-09-03T06:40:23.286Z,92.97
2022-09-03T06:41:23.211Z,93.84
2022-09-03T06:42:23.127Z,94.12
2022-09-03T06:43:23.055Z,95.41
2022-09-03T06:44:22.977Z,95.98
2022-09-03T06:45:22.953Z,94.74
2022-09-03T06:46:22.823Z,95.79
2022-09-03T06:47:22.736Z,96.18
2022-09-03T06:48:22.718Z,95.51
2022-09-03T06:49:22.582Z,95.70
2022-09-03T06:50:22.510Z,97.13
2022-09-03T06:51:22.430Z,96.18
2022-09-03T06:52:22.350Z,96.37
2022-09-03T06:53:22.272Z,94.93
2022-09-03T06:54:22.194Z,95.70
2022-09-03T06:55:22.118Z,96.08
2022-09-03T06:56:22.042Z,97.80
2022-09-03T06:57:21.956Z,97.90
2022-09-03T06:58:21.934Z,99.05
2022-09-03T06:59:21.805Z,99.52
2022-09-03T07:00:21.727Z,98.91
2022-09-03T07:01:21.810Z,97.80
2022-09-03T07:02:21.734Z,98.86
2022-09-03T07:03:21.491Z,98.62
2022-09-03T07:04:21.414Z,98.05
2022-09-03T07:05:21.336Z,97.95
2022-09-03T07:06:21.259Z,97.85
2022-09-03T07:07:21.182Z,97.66
2022-09-03T07:08:21.107Z,97.47
2022-09-03T07:09:21.028Z,99.87
2022-09-03T07:10:20.953Z,98.43
2022-09-03T07:11:20.873Z,98.43
2022-09-03T07:12:20.795Z,99.29
2022-09-03T07:13:20.716Z,98.05
2022-09-03T07:14:20.637Z,98.96
2022-09-03T07:15:20.566Z,97.85
2022-09-03T07:16:20.538Z,94.45
2022-09-03T07:17:20.400Z,95.22
2022-09-03T07:18:20.353Z,95.89
2022-09-03T07:19:20.243Z,95.60
2022-09-03T07:20:20.168Z,97.90
2022-09-03T07:21:20.090Z,96.56
2022-09-03T07:22:20.015Z,97.23
2022-09-03T07:23:19.933Z,96.56
2022-09-03T07:24:19.907Z,98.57
2022-09-03T07:25:19.792Z,98.67
2022-09-03T07:26:19.703Z,99.99
2022-09-03T07:27:19.630Z,98.10
2022-09-03T07:28:19.590Z,99.99
2022-09-03T07:29:19.468Z,99.19
2022-09-03T07:30:19.391Z,99.15
2022-09-03T07:31:19.316Z,99.19
2022-09-03T07:32:19.241Z,99.99
2022-09-03T07:33:19.161Z,99.19
2022-09-03T07:34:19.083Z,99.82
2022-09-03T07:35:19.005Z,98.91
2022-09-03T07:36:18.927Z,99.99
2022-09-03T07:37:18.852Z,99.99
2022-09-03T07:38:18.778Z,98.52
2022-09-03T07:39:18.753Z,99.99
2022-09-03T07:40:18.616Z,99.77
2022-09-03T07:41:28.517Z,99.99
2022-09-03T07:42:18.464Z,99.99
2022-09-03T07:43:18.392Z,99.99
2022-09-03T07:44:18.317Z,99.99
2022-09-03T07:45:18.236Z,99.99
2022-09-03T07:46:18.225Z,99.99
2022-09-03T07:47:19.906Z,99.99
2022-09-03T07:48:18.000Z,99.99
2022-09-03T07:49:17.920Z,99.99
2022-09-03T07:50:17.844Z,99.99
2022-09-03T07:51:17.772Z,99.99
2022-09-03T07:52:18.262Z,99.99
2022-09-03T07:53:17.619Z,99.99
2022-09-03T07:54:17.535Z,99.99
2022-09-03T07:55:17.469Z,99.99
2022-09-03T07:56:17.384Z,99.99
2022-09-03T07:57:17.305Z,99.99
2022-09-03T07:58:17.225Z,99.99
2022-09-03T07:59:17.153Z,99.99
2022-09-03T08:00:17.074Z,99.99
2022-09-03T08:01:17.049Z,99.99
2022-09-03T08:02:16.917Z,99.99
2022-09-03T08:03:16.843Z,99.99
2022-09-03T08:04:16.763Z,99.99
2022-09-03T08:05:16.691Z,99.99
2022-09-03T08:06:16.612Z,99.99
2022-09-03T08:07:16.533Z,99.99
2022-09-03T08:08:16.519Z,99.99
2022-09-03T08:09:16.380Z,99.99
2022-09-03T08:10:16.305Z,99.99
2022-09-03T08:11:16.228Z,99.99
2022-09-03T08:12:16.148Z,99.99
2022-09-03T08:13:16.074Z,99.99
2022-09-03T08:14:15.992Z,99.99
2022-09-03T08:15:15.947Z,99.99
2022-09-03T08:16:15.888Z,99.99
2022-09-03T08:17:15.764Z,99.99
2022-09-03T08:18:15.690Z,97.71
2022-09-03T08:19:15.615Z,98.14
2022-09-03T08:20:15.533Z,98.91
2022-09-03T08:21:15.461Z,98.00
2022-09-03T08:22:15.385Z,99.92
2022-09-03T08:23:15.310Z,99.92
2022-09-03T08:24:15.232Z,99.99
2022-09-03T08:25:15.156Z,99.99
2022-09-03T08:26:15.077Z,99.35
2022-09-03T08:27:15.003Z,98.86
2022-09-03T08:28:14.928Z,98.29
2022-09-03T08:29:14.847Z,98.19
2022-09-03T08:30:14.771Z,98.86
2022-09-03T08:31:14.763Z,96.66
2022-09-03T08:32:14.622Z,95.50
2022-09-03T08:33:14.550Z,95.70
2022-09-03T08:34:14.466Z,95.75
2022-09-03T08:35:14.441Z,96.51
2022-09-03T08:36:14.316Z,97.76
2022-09-03T08:37:14.240Z,98.63
2022-09-03T08:38:14.199Z,97.81
2022-09-03T08:39:14.087Z,96.27
2022-09-03T08:40:14.013Z,98.96
2022-09-03T08:41:13.942Z,97.91
2022-09-03T08:42:13.860Z,95.70
2022-09-03T08:43:13.786Z,97.71
2022-09-03T08:44:13.709Z,98.14
2022-09-03T08:45:13.634Z,94.73
2022-09-03T08:46:13.596Z,93.96
2022-09-03T08:47:13.474Z,91.18
2022-09-03T08:48:13.400Z,93.01
2022-09-03T08:49:13.325Z,94.64
2022-09-03T08:50:13.249Z,92.43
2022-09-03T08:51:13.176Z,93.01
2022-09-03T08:52:13.100Z,91.85
2022-09-03T08:53:13.023Z,92.05
2022-09-03T08:54:12.945Z,92.96
2022-09-03T08:55:12.871Z,93.91
2022-09-03T08:56:12.796Z,94.68
2022-09-03T08:57:12.718Z,93.53
2022-09-03T08:58:12.641Z,93.82
2022-09-03T08:59:12.567Z,94.88
2022-09-03T09:00:12.488Z,95.36
2022-09-03T09:01:12.410Z,94.64
2022-09-03T09:02:12.412Z,92.67
2022-09-03T09:03:12.259Z,92.91
2022-09-03T09:04:12.182Z,93.00
2022-09-03T09:05:14.429Z,95.21
2022-09-03T09:06:12.035Z,95.21
2022-09-03T09:07:11.957Z,94.06
2022-09-03T09:08:11.882Z,95.60
2022-09-03T09:09:11.804Z,91.60
2022-09-03T09:10:11.731Z,91.75
2022-09-03T09:11:11.665Z,90.98
2022-09-03T09:12:11.577Z,93.96
2022-09-03T09:13:11.500Z,94.20
2022-09-03T09:14:11.425Z,93.82
2022-09-03T09:15:11.345Z,94.59
2022-09-03T09:16:11.362Z,94.49
2022-09-03T09:17:11.201Z,95.26
2022-09-03T09:18:11.402Z,93.82
2022-09-03T09:19:11.049Z,92.85
2022-09-03T09:20:10.971Z,91.89
2022-09-03T09:21:10.896Z,91.89
2022-09-03T09:22:10.822Z,91.89
2022-09-03T09:23:10.748Z,91.22
2022-09-03T09:24:10.666Z,95.07
2022-09-03T09:25:10.596Z,93.91
2022-09-03T09:26:10.518Z,97.42
2022-09-03T09:27:15.379Z,94.40
2022-09-03T09:28:10.391Z,95.74
2022-09-03T09:29:10.342Z,95.45
2022-09-03T09:30:10.212Z,94.78
2022-09-03T09:31:10.215Z,93.15
2022-09-03T09:32:10.060Z,95.26
2022-09-03T09:33:09.992Z,93.33
2022-09-03T09:34:09.913Z,95.07
2022-09-03T09:35:09.840Z,94.01
2022-09-03T09:36:09.763Z,95.84
2022-09-03T09:37:09.685Z,95.26
2022-09-03T09:38:09.612Z,94.40
2022-09-03T09:39:09.539Z,93.24
2022-09-03T09:40:09.462Z,93.24
2022-09-03T09:41:09.388Z,94.78
2022-09-03T09:42:09.312Z,94.68
2022-09-03T09:43:09.235Z,94.92
2022-09-03T09:44:09.159Z,95.55
2022-09-03T09:45:09.083Z,95.50
2022-09-03T09:46:09.081Z,96.08
2022-09-03T09:47:08.934Z,96.85
2022-09-03T09:48:08.857Z,98.44
2022-09-03T09:49:08.785Z,99.01
2022-09-03T09:50:08.708Z,99.49
2022-09-03T09:51:08.637Z,99.88
2022-09-03T09:52:08.553Z,99.49
2022-09-03T09:53:08.490Z,98.54
2022-09-03T09:54:08.400Z,97.47
2022-09-03T09:55:08.328Z,96.61
2022-09-03T09:56:08.259Z,98.05
2022-09-03T09:57:08.172Z,97.96
2022-09-03T09:58:10.955Z,97.38
2022-09-03T09:59:08.028Z,95.74
2022-09-03T10:00:07.948Z,96.32
2022-09-03T10:01:07.936Z,97.09
2022-09-03T10:02:07.799Z,98.00
2022-09-03T10:03:07.757Z,98.00
2022-09-03T10:04:07.647Z,97.04
2022-09-03T10:05:07.569Z,95.40
2022-09-03T10:06:07.495Z,93.67
2022-09-03T10:07:07.423Z,93.96
2022-09-03T10:08:07.350Z,93.29
2022-09-03T10:09:07.277Z,95.02
2022-09-03T10:10:07.194Z,96.75
2022-09-03T10:11:07.129Z,97.81
2022-09-03T10:12:07.041Z,95.79
2022-09-03T10:13:06.965Z,94.92
2022-09-03T10:14:06.893Z,94.10
2022-09-03T10:15:06.815Z,91.79
2022-09-03T10:16:06.781Z,92.56
2022-09-03T10:17:06.665Z,93.43
2022-09-03T10:18:06.590Z,94.97
2022-09-03T10:19:06.521Z,91.99
2022-09-03T10:20:06.439Z,93.04
2022-09-03T10:21:06.371Z,92.08
2022-09-03T10:22:06.292Z,89.04
2022-09-03T10:23:06.213Z,90.30
2022-09-03T10:24:06.759Z,93.09
2022-09-03T10:25:06.070Z,92.32
2022-09-03T10:26:05.993Z,93.38
2022-09-03T10:27:05.918Z,95.11
2022-09-03T10:28:05.839Z,95.11
2022-09-03T10:29:05.769Z,94.92
2022-09-03T10:30:05.691Z,88.65
2022-09-03T10:31:05.687Z,89.72
2022-09-03T10:32:05.547Z,89.28
2022-09-03T10:33:05.462Z,90.05
2022-09-03T10:34:05.386Z,88.41
2022-09-03T10:35:05.313Z,90.05
2022-09-03T10:36:05.240Z,89.37
2022-09-03T10:37:05.161Z,89.76
2022-09-03T10:38:05.090Z,88.70
2022-09-03T10:39:05.014Z,86.72
2022-09-03T10:40:05.007Z,87.20
2022-09-03T10:41:04.871Z,86.91
2022-09-03T10:42:04.792Z,86.33
2022-09-03T10:43:04.716Z,87.10
2022-09-03T10:44:04.646Z,84.98
2022-09-03T10:45:04.568Z,83.48
2022-09-03T10:46:04.576Z,86.86
2022-09-03T10:47:04.422Z,82.81
2022-09-03T10:48:04.347Z,88.98
2022-09-03T10:49:04.272Z,88.98
2022-09-03T10:50:04.198Z,90.05
2022-09-03T10:51:04.127Z,90.91
2022-09-03T10:52:04.050Z,86.66
2022-09-03T10:53:03.977Z,83.87
2022-09-03T10:54:03.901Z,85.60
2022-09-03T10:55:03.821Z,83.58
2022-09-03T10:56:03.758Z,83.19
2022-09-03T10:57:03.673Z,82.84
2022-09-03T10:58:03.604Z,81.49
2022-09-03T10:59:03.528Z,83.62
2022-09-03T11:00:03.456Z,85.64
2022-09-03T11:01:03.436Z,84.10
2022-09-03T11:02:03.308Z,85.45
2022-09-03T11:03:03.297Z,85.94
2022-09-03T11:04:03.161Z,84.72
2022-09-03T11:05:03.085Z,82.98
2022-09-03T11:06:03.015Z,83.95
2022-09-03T11:07:02.941Z,80.38
2022-09-03T11:08:02.872Z,79.41
2022-09-03T11:09:06.480Z,78.96
2022-09-03T11:10:02.718Z,77.80
2022-09-03T11:11:02.644Z,76.74
2022-09-03T11:12:02.572Z,76.26
2022-09-03T11:13:02.507Z,81.32
2022-09-03T11:14:02.419Z,79.10
2022-09-03T11:15:02.347Z,77.17
2022-09-03T11:16:02.369Z,76.68
2022-09-03T11:17:02.195Z,76.14
2022-09-03T11:18:02.127Z,77.20
2022-09-03T11:19:02.050Z,77.20
2022-09-03T11:20:01.977Z,74.30
2022-09-03T11:21:01.915Z,76.66
2022-09-03T11:22:01.829Z,74.92
2022-09-03T11:23:01.765Z,73.57
2022-09-03T11:24:01.685Z,73.75
2022-09-03T11:25:01.615Z,72.50
2022-09-03T11:26:01.548Z,73.18
2022-09-03T11:27:01.463Z,73.08
2022-09-03T11:28:01.390Z,76.08
2022-09-03T11:29:01.321Z,72.60
2022-09-03T11:30:01.254Z,72.60
2022-09-03T11:31:01.223Z,71.34
2022-09-03T11:32:01.099Z,71.62
2022-09-03T11:33:01.029Z,69.31
2022-09-03T11:34:00.964Z,69.50
2022-09-03T11:35:00.893Z,67.76
2022-09-03T11:36:00.822Z,70.08
2022-09-03T11:37:00.748Z,72.40
2022-09-03T11:38:00.666Z,70.18
2022-09-03T11:39:00.598Z,68.88
2022-09-03T11:40:00.595Z,69.50
2022-09-03T11:41:00.450Z,71.72
2022-09-03T11:42:00.402Z,68.21
2022-09-03T11:43:00.304Z,70.14
2022-09-03T11:44:04.509Z,71.69
2022-09-03T11:45:00.163Z,70.72
2022-09-03T11:46:00.169Z,70.43
2022-09-03T11:47:00.029Z,71.98
2022-09-03T11:47:59.941Z,69.56
2022-09-03T11:48:59.871Z,70.24
2022-09-03T11:49:59.800Z,70.82
2022-09-03T11:50:59.734Z,73.63
2022-09-03T11:51:59.656Z,73.43
2022-09-03T11:52:59.590Z,74.21
2022-09-03T11:53:59.510Z,73.14
2022-09-03T11:54:59.440Z,72.17
2022-09-03T11:55:59.371Z,69.75
2022-09-03T11:56:59.291Z,74.11
2022-09-03T11:57:59.221Z,71.59
2022-09-03T11:58:59.148Z,70.43
2022-09-03T11:59:59.078Z,69.75
2022-09-03T12:00:58.998Z,69.27
2022-09-03T12:01:58.944Z,70.43
2022-09-03T12:02:59.306Z,71.98
2022-09-03T12:03:58.781Z,71.78
2022-09-03T12:04:58.789Z,74.59
2022-09-03T12:05:58.643Z,74.59
2022-09-03T12:06:58.563Z,82.91
2022-09-03T12:07:58.497Z,74.34
2022-09-03T12:08:58.434Z,72.89
2022-09-03T12:09:58.354Z,76.08
2022-09-03T12:10:58.281Z,73.57
2022-09-03T12:11:58.204Z,71.24
2022-09-03T12:12:58.136Z,71.53
2022-09-03T12:13:58.064Z,72.40
2022-09-03T12:14:57.989Z,78.11
2022-09-03T12:15:57.981Z,74.88
2022-09-03T12:16:57.844Z,74.79
2022-09-03T12:17:57.778Z,73.24
2022-09-03T12:18:57.700Z,77.98
2022-09-03T12:19:57.627Z,76.62
2022-09-03T12:20:57.556Z,73.04
2022-09-03T12:21:57.481Z,73.82
2022-09-03T12:22:57.416Z,73.04
2022-09-03T12:23:58.322Z,71.01
2022-09-03T12:24:57.263Z,69.75
2022-09-03T12:25:57.208Z,76.91
2022-09-03T12:26:57.121Z,79.04
2022-09-03T12:27:57.049Z,73.63
2022-09-03T12:28:56.978Z,73.72
2022-09-03T12:29:56.900Z,74.79
2022-09-03T12:30:56.923Z,72.46
2022-09-03T12:31:56.760Z,72.85
2022-09-03T12:32:56.688Z,73.24
2022-09-03T12:33:56.620Z,72.72
2022-09-03T12:34:56.544Z,72.46
2022-09-03T12:35:59.967Z,73.68
2022-09-03T12:36:56.399Z,73.39
2022-09-03T12:38:05.345Z,74.46
2022-09-03T12:39:12.969Z,74.75
2022-09-03T12:40:11.577Z,78.42
2022-09-03T12:41:56.036Z,78.71
2022-09-03T12:43:37.107Z,78.81
2022-09-03T12:43:56.149Z,82.29
2022-09-03T12:44:55.820Z,76.87
2022-09-03T12:46:11.568Z,75.91
2022-09-03T12:47:33.620Z,75.97
2022-09-03T12:47:55.752Z,76.59
2022-09-03T12:49:55.459Z,77.80
2022-09-03T12:50:56.769Z,77.71
2022-09-03T12:51:58.212Z,78.87
2022-09-03T12:52:55.238Z,78.09
2022-09-03T12:53:55.169Z,77.42